Time;durP1;ratioP1;P1;durP2;ratioP2;P2;SDS_P1;SDS_P2;PMS_P1;PMS_P2;Temp;Humidity;BMP_temperature;BMP_pressure;BME280_temperature;BME280_humidity;BME280_pressure;Samples;Min_cycle;Max_cycle;Signal;HPM_P1;HPM_P2
2023/12/18 00:04:24;;;;;;;;;;;;;;;0.84;68.06;101461.75;6056879;22;19908;-83
2023/12/18 00:19:49;;;;;;;;;;;;;;;0.62;69.10;101461.84;6055929;22;19913;-83
2023/12/18 00:22:24;;;;;;;;;;;;;;;0.57;68.04;101461.19;5044434;28;19935;-83
2023/12/18 00:27:25;;;;;;;;;;;;;;;0.57;68.67;101456.84;5251827;22;19909;-82
2023/12/18 00:29:53;;;;;;;;;;;;;;;0.60;68.44;101461.91;5061373;28;19986;-82
2023/12/18 00:32:20;;;;;;;;;;;;;;;0.62;68.84;101459.25;5526413;22;19921;-82
2023/12/18 00:37:23;;;;;;;;;;;;;;;0.58;67.95;101436.91;5084459;22;19915;-82
2023/12/18 00:51:28;;;;;;;;;;;;;;;0.60;68.35;101411.69;5018568;28;19933;-82
2023/12/18 01:05:29;;;;;;;;;;;;;;;0.52;68.70;101406.84;5392953;22;19932;-81
2023/12/18 01:44:40;;;;;;;;;;;;;;;0.42;68.65;101389.13;6107659;22;20249;-83
2023/12/18 01:47:18;;;;;;;;;;;;;;;0.43;68.53;101389.06;5079283;28;19965;-82
2023/12/18 02:12:27;;;;;;;;;;;;;;;0.54;68.70;101358.22;6197691;22;20263;-80
2023/12/18 02:23:30;;;;;;;;;;;;;;;0.54;68.00;101352.19;5901138;22;19921;-82
2023/12/18 02:42:49;;;;;;;;;;;;;;;0.58;68.16;101346.78;5098166;28;19931;-81
2023/12/18 02:45:50;;;;;;;;;;;;;;;0.59;67.81;101350.22;5047633;28;19972;-82
2023/12/18 02:48:51;;;;;;;;;;;;;;;0.62;68.18;101337.09;5097800;28;19972;-81
2023/12/18 03:30:47;;;;;;;;;;;;;;;0.28;67.43;101348.16;5987721;22;19976;-80
2023/12/18 03:33:13;;;;;;;;;;;;;;;0.32;68.27;101352.31;5037001;28;19980;-82
2023/12/18 03:35:43;;;;;;;;;;;;;;;0.28;68.13;101351.59;5037436;28;19918;-81
2023/12/18 03:52:01;;;;;;;;;;;;;;;0.13;67.97;101334.09;5470665;22;20023;-83
2023/12/18 03:54:42;;;;;;;;;;;;;;;0.14;68.35;101332.34;5059433;28;19920;-83
2023/12/18 04:02:27;;;;;;;;;;;;;;;0.16;67.64;101323.56;5527279;22;19921;-81
2023/12/18 04:24:38;;;;;;;;;;;;;;;0.07;68.40;101325.75;5297219;22;19933;-83
2023/12/18 04:44:31;;;;;;;;;;;;;;;0.23;67.94;101335.38;5078563;28;19932;-81
2023/12/18 04:58:11;;;;;;;;;;;;;;;0.20;67.95;101334.69;5633167;22;19925;-81
2023/12/18 05:10:57;;;;;;;;;;;;;;;0.11;67.32;101335.94;5615925;22;19909;-82
2023/12/18 05:13:26;;;;;;;;;;;;;;;0.16;67.91;101330.53;5046979;28;19904;-83
2023/12/18 05:21:12;;;;;;;;;;;;;;;0.02;67.57;101314.72;5335020;22;19909;-82
2023/12/18 05:32:35;;;;;;;;;;;;;;;-0.23;68.23;101310.56;5060767;28;19934;-81
2023/12/18 05:35:03;;;;;;;;;;;;;;;-0.34;67.31;101300.63;5346993;22;19909;-81
2023/12/18 06:43:25;;;;;;;;;;;;;;;0.27;67.43;101310.94;5823315;22;19932;-83
2023/12/18 07:11:11;;;;;;;;;;;;;;;0.66;67.52;101317.84;5174137;22;19924;-82
2023/12/18 07:13:39;;;;;;;;;;;;;;;0.71;67.60;101317.63;5076860;28;19909;-81
2023/12/18 07:16:07;;;;;;;;;;;;;;;0.74;67.68;101312.28;5075612;28;19920;-81
2023/12/18 07:19:00;;;;;;;;;;;;;;;0.76;67.21;101302.69;5059158;28;20455;-81
2023/12/18 07:21:28;;;;;;;;;;;;;;;0.79;67.33;101294.72;5075624;28;19927;-81
2023/12/18 07:27:17;;;;;;;;;;;;;;;0.94;67.53;101307.84;5058568;28;19912;-82
2023/12/18 07:35:13;;;;;;;;;;;;;;;1.03;67.19;101303.13;5248532;22;19909;-81
2023/12/18 07:38:08;;;;;;;;;;;;;;;1.10;67.11;101313.16;5077414;28;19925;-80
2023/12/18 07:40:41;;;;;;;;;;;;;;;1.15;67.64;101305.97;5065364;28;19964;-81
2023/12/18 07:46:28;;;;;;;;;;;;;;;1.25;67.29;101309.78;5077960;28;19951;-82
2023/12/18 07:48:54;;;;;;;;;;;;;;;1.30;67.34;101314.78;5027894;28;19912;-81
2023/12/18 08:12:35;;;;;;;;;;;;;;;1.93;67.23;101276.00;4904475;22;19931;-83
2023/12/18 08:18:06;;;;;;;;;;;;;;;2.12;67.33;101289.72;5082286;28;19907;-79
2023/12/18 08:20:32;;;;;;;;;;;;;;;2.18;67.36;101296.38;5063126;28;19940;-80
2023/12/18 08:22:59;;;;;;;;;;;;;;;2.24;67.08;101288.28;5076865;28;19917;-81
2023/12/18 08:36:34;;;;;;;;;;;;;;;2.61;67.02;101265.41;5342006;22;19925;-81
2023/12/18 08:47:59;;;;;;;;;;;;;;;2.92;66.80;101261.91;5457618;22;19925;-83
2023/12/18 08:54:40;;;;;;;;;;;;;;;3.06;66.68;101249.78;5673457;22;19909;-83
2023/12/18 09:00:53;;;;;;;;;;;;;;;3.22;66.05;101239.31;5364394;22;20012;-82
2023/12/18 09:04:00;;;;;;;;;;;;;;;3.33;65.92;101228.22;5180205;22;19945;-87
2023/12/18 09:07:04;;;;;;;;;;;;;;;3.40;65.94;101230.41;5088725;28;19916;-83
2023/12/18 09:09:33;;;;;;;;;;;;;;;3.46;65.85;101221.34;5047363;28;19927;-83
2023/12/18 09:41:43;;;;;;;;;;;;;;;4.10;64.78;101183.47;5061539;28;19916;-85
2023/12/18 09:44:33;;;;;;;;;;;;;;;4.18;65.04;101183.00;5038159;28;19916;-83
2023/12/18 09:47:07;;;;;;;;;;;;;;;4.22;64.71;101182.69;5012475;28;19925;-82
2023/12/18 09:49:32;;;;;;;;;;;;;;;4.26;64.47;101167.66;5004752;28;19999;-81
2023/12/18 09:52:06;;;;;;;;;;;;;;;4.31;64.55;101170.81;5030927;28;19917;-83
2023/12/18 09:54:35;;;;;;;;;;;;;;;4.42;64.17;101166.56;5016531;28;19922;-82
2023/12/18 09:57:05;;;;;;;;;;;;;;;4.50;62.98;101157.44;5021009;28;20457;-83
2023/12/18 09:59:30;;;;;;;;;;;;;;;4.56;63.66;101159.63;4995938;28;20377;-84
2023/12/18 10:01:56;;;;;;;;;;;;;;;4.66;63.70;101150.25;5015810;28;20004;-86
2023/12/18 10:04:21;;;;;;;;;;;;;;;4.74;63.92;101147.97;5013618;28;20481;-83
2023/12/18 10:06:48;;;;;;;;;;;;;;;4.80;63.62;101142.34;5018859;28;19913;-86
2023/12/18 10:09:14;;;;;;;;;;;;;;;4.88;63.95;101136.59;4991320;28;19917;-84
2023/12/18 10:11:40;;;;;;;;;;;;;;;4.95;63.07;101133.44;5007089;28;19936;-84
2023/12/18 10:14:06;;;;;;;;;;;;;;;4.99;62.85;101132.31;4994592;28;19917;-85
2023/12/18 10:16:32;;;;;;;;;;;;;;;5.08;63.07;101128.22;5027054;28;19944;-83
2023/12/18 10:18:58;;;;;;;;;;;;;;;5.15;63.58;101128.66;5031157;28;19928;-86
2023/12/18 10:21:24;;;;;;;;;;;;;;;5.18;63.04;101129.28;5021097;28;19909;-81
2023/12/18 10:23:52;;;;;;;;;;;;;;;5.24;62.35;101128.88;5017741;28;20283;-84
2023/12/18 10:26:18;;;;;;;;;;;;;;;5.28;62.39;101119.03;5031980;28;19925;-87
2023/12/18 10:28:44;;;;;;;;;;;;;;;5.30;62.11;101118.00;5008773;28;20364;-81
2023/12/18 10:31:09;;;;;;;;;;;;;;;5.34;62.38;101110.75;5029694;28;19960;-85
2023/12/18 10:33:35;;;;;;;;;;;;;;;5.36;62.06;101101.00;5017109;28;19952;-84
2023/12/18 10:36:01;;;;;;;;;;;;;;;5.38;61.93;101105.19;5034141;28;20391;-81
2023/12/18 10:38:29;;;;;;;;;;;;;;;5.42;62.07;101098.81;5031146;28;19967;-86
2023/12/18 10:40:58;;;;;;;;;;;;;;;5.46;62.41;101082.88;5014734;28;19974;-83
2023/12/18 10:43:24;;;;;;;;;;;;;;;5.49;62.14;101085.28;5031491;28;19920;-84
2023/12/18 10:45:52;;;;;;;;;;;;;;;5.51;62.22;101083.38;5012798;28;19921;-82
2023/12/18 10:48:18;;;;;;;;;;;;;;;5.52;61.99;101078.03;5027369;28;20473;-80
2023/12/18 10:50:44;;;;;;;;;;;;;;;5.51;62.17;101071.13;5032866;28;19921;-83
2023/12/18 10:53:14;;;;;;;;;;;;;;;5.52;62.27;101062.31;5032294;28;19971;-80
2023/12/18 10:55:40;;;;;;;;;;;;;;;5.54;62.09;101073.53;5012631;28;20259;-83
2023/12/18 10:58:07;;;;;;;;;;;;;;;5.54;61.53;101075.31;5015551;28;19924;-83
2023/12/18 11:00:33;;;;;;;;;;;;;;;5.55;61.14;101069.97;5031380;28;20405;-83
2023/12/18 11:02:59;;;;;;;;;;;;;;;5.57;61.99;101060.22;5013273;28;19949;-81
2023/12/18 11:05:25;;;;;;;;;;;;;;;5.61;61.57;101055.59;5017198;28;20397;-82
2023/12/18 11:07:51;;;;;;;;;;;;;;;5.64;62.05;101053.59;5031582;28;19913;-80
2023/12/18 11:10:16;;;;;;;;;;;;;;;5.70;62.08;101054.94;5016569;28;19964;-80
2023/12/18 11:12:42;;;;;;;;;;;;;;;5.74;62.28;101044.13;5031271;28;19917;-79
2023/12/18 11:15:34;;;;;;;;;;;;;;;5.80;61.00;101050.72;5029138;28;19956;-83
2023/12/18 11:18:00;;;;;;;;;;;;;;;5.81;60.42;101051.53;5028173;28;19995;-84
2023/12/18 11:20:33;;;;;;;;;;;;;;;5.82;61.21;101040.94;5014477;28;20011;-82
2023/12/18 11:23:00;;;;;;;;;;;;;;;5.84;60.76;101032.97;5030570;28;20231;-81
2023/12/18 11:25:35;;;;;;;;;;;;;;;5.83;61.08;101033.91;5032043;28;19921;-82
2023/12/18 11:28:02;;;;;;;;;;;;;;;5.83;59.96;101029.53;5008484;28;20458;-82
2023/12/18 11:30:29;;;;;;;;;;;;;;;5.83;59.87;101024.28;5030936;28;20421;-83
2023/12/18 11:32:56;;;;;;;;;;;;;;;5.85;60.49;101021.53;5028853;28;19918;-80
2023/12/18 11:35:26;;;;;;;;;;;;;;;5.86;61.25;101021.44;5014907;28;19917;-80
2023/12/18 11:37:52;;;;;;;;;;;;;;;5.87;60.79;101017.88;5028809;28;20019;-80
2023/12/18 11:40:29;;;;;;;;;;;;;;;5.87;61.25;101017.03;5017909;28;20404;-82
2023/12/18 11:42:55;;;;;;;;;;;;;;;5.85;60.63;101021.53;5018676;28;19917;-80
2023/12/18 11:45:22;;;;;;;;;;;;;;;5.84;60.41;101020.72;5029011;28;19920;-82
2023/12/18 11:47:50;;;;;;;;;;;;;;;5.86;61.28;101021.44;5030904;28;19925;-86
2023/12/18 11:50:18;;;;;;;;;;;;;;;5.86;61.26;101012.72;5034595;28;19917;-83
2023/12/18 11:52:46;;;;;;;;;;;;;;;5.84;60.42;101009.38;5038495;28;20409;-84
2023/12/18 11:55:12;;;;;;;;;;;;;;;5.84;61.61;101004.16;5030533;28;20016;-86
2023/12/18 11:57:40;;;;;;;;;;;;;;;5.83;60.03;101000.69;5016583;28;19917;-84
2023/12/18 12:00:06;;;;;;;;;;;;;;;5.89;61.92;100996.78;5013798;28;19913;-86
2023/12/18 12:02:32;;;;;;;;;;;;;;;5.89;62.48;100994.16;5010619;28;19971;-83
2023/12/18 12:04:59;;;;;;;;;;;;;;;5.88;61.34;100995.13;5013335;28;19921;-82
2023/12/18 12:07:24;;;;;;;;;;;;;;;5.92;62.07;101001.84;5013704;28;19928;-85
2023/12/18 12:09:59;;;;;;;;;;;;;;;5.93;61.99;100998.25;5040014;28;19917;-84
2023/12/18 12:12:24;;;;;;;;;;;;;;;5.92;61.70;100996.59;5026389;28;20034;-84
2023/12/18 12:14:50;;;;;;;;;;;;;;;5.88;61.60;100980.22;5023878;28;20007;-85
2023/12/18 12:17:19;;;;;;;;;;;;;;;5.86;61.87;100974.25;5024279;28;20317;-83
2023/12/18 12:19:44;;;;;;;;;;;;;;;5.86;61.70;100982.13;5031721;28;19983;-84
2023/12/18 12:22:12;;;;;;;;;;;;;;;5.83;61.45;100977.09;5015495;28;19917;-84
2023/12/18 12:24:39;;;;;;;;;;;;;;;5.83;62.16;100977.09;5011869;28;20016;-86
2023/12/18 12:27:04;;;;;;;;;;;;;;;5.81;61.28;100971.13;5011755;28;19924;-83
2023/12/18 12:29:30;;;;;;;;;;;;;;;5.80;61.53;100972.09;5029481;28;20317;-85
2023/12/18 12:31:55;;;;;;;;;;;;;;;5.80;61.40;100960.75;5026610;28;20309;-83
2023/12/18 12:34:20;;;;;;;;;;;;;;;5.78;62.08;100971.34;5014301;28;19921;-86
2023/12/18 12:36:46;;;;;;;;;;;;;;;5.79;62.22;100969.56;5022469;28;19913;-85
2023/12/18 12:39:11;;;;;;;;;;;;;;;5.77;61.77;100956.59;5054779;28;19917;-84
2023/12/18 12:41:36;;;;;;;;;;;;;;;5.77;61.27;100953.97;5034432;28;19984;-83
2023/12/18 12:44:02;;;;;;;;;;;;;;;5.79;61.62;100951.22;5021751;28;19939;-85
2023/12/18 12:46:27;;;;;;;;;;;;;;;5.80;61.24;100953.75;5028556;28;19921;-82
2023/12/18 12:48:53;;;;;;;;;;;;;;;5.83;61.72;100944.81;5014646;28;19939;-82
2023/12/18 12:51:18;;;;;;;;;;;;;;;5.83;61.04;100945.66;5034473;28;20378;-86
2023/12/18 12:53:43;;;;;;;;;;;;;;;5.86;60.48;100936.72;5022709;28;19931;-84
2023/12/18 12:56:10;;;;;;;;;;;;;;;5.88;60.81;100937.44;5021484;28;19917;-82
2023/12/18 12:58:36;;;;;;;;;;;;;;;5.90;60.11;100939.03;5031268;28;20321;-82
2023/12/18 13:01:02;;;;;;;;;;;;;;;5.90;60.15;100932.97;5034523;28;19913;-84
2023/12/18 13:03:27;;;;;;;;;;;;;;;5.90;59.61;100931.16;5017875;28;19932;-86
2023/12/18 13:05:52;;;;;;;;;;;;;;;5.91;59.17;100927.59;5013681;28;20019;-81
2023/12/18 13:08:18;;;;;;;;;;;;;;;5.93;60.72;100932.72;5040956;28;19929;-81
2023/12/18 13:10:43;;;;;;;;;;;;;;;5.94;60.93;100929.16;5043391;28;19917;-83
2023/12/18 13:13:09;;;;;;;;;;;;;;;5.94;60.22;100929.16;5012433;28;19933;-82
2023/12/18 13:15:35;;;;;;;;;;;;;;;5.94;60.61;100942.25;5031188;28;20414;-81
2023/12/18 13:18:00;;;;;;;;;;;;;;;5.91;59.59;100937.25;5035133;28;20491;-84
2023/12/18 13:20:26;;;;;;;;;;;;;;;5.91;59.16;100932.00;5034157;28;20027;-82
2023/12/18 13:22:51;;;;;;;;;;;;;;;5.93;59.84;100930.09;5016200;28;19913;-85
2023/12/18 13:25:17;;;;;;;;;;;;;;;5.94;59.43;100926.53;5016218;28;19921;-81
2023/12/18 13:27:42;;;;;;;;;;;;;;;5.96;58.80;100929.91;5034021;28;19913;-84
2023/12/18 13:30:11;;;;;;;;;;;;;;;5.97;60.11;100924.56;5034188;28;20007;-83
2023/12/18 13:32:36;;;;;;;;;;;;;;;5.98;61.22;100928.00;5033952;28;19913;-84
2023/12/18 13:35:02;;;;;;;;;;;;;;;5.96;60.30;100927.28;5034088;28;19940;-84
2023/12/18 13:37:27;;;;;;;;;;;;;;;5.95;60.83;100933.47;5033120;28;20002;-82
2023/12/18 13:39:53;;;;;;;;;;;;;;;5.94;61.04;100930.00;5014644;28;20378;-82
2023/12/18 13:42:18;;;;;;;;;;;;;;;5.95;61.09;100943.97;4996657;28;19967;-82
2023/12/18 13:44:44;;;;;;;;;;;;;;;5.94;60.79;100945.72;5017513;28;19928;-82
2023/12/18 13:47:09;;;;;;;;;;;;;;;5.87;61.31;100934.00;5034091;28;19917;-81
2023/12/18 13:49:36;;;;;;;;;;;;;;;5.82;62.54;100943.97;5033146;28;19966;-82
2023/12/18 13:52:01;;;;;;;;;;;;;;;5.79;63.04;100938.13;5015974;28;19917;-81
2023/12/18 13:54:26;;;;;;;;;;;;;;;5.73;62.91;100935.00;5032250;28;19917;-80
2023/12/18 13:56:52;;;;;;;;;;;;;;;5.72;63.33;100940.38;5028912;28;19921;-81
2023/12/18 13:59:18;;;;;;;;;;;;;;;5.70;63.26;100929.16;5009687;28;20012;-81
2023/12/18 14:01:44;;;;;;;;;;;;;;;5.69;63.02;100927.50;5029750;28;19995;-80
2023/12/18 14:04:10;;;;;;;;;;;;;;;5.67;62.96;100924.16;5010995;28;20489;-81
2023/12/18 14:06:35;;;;;;;;;;;;;;;5.65;63.50;100933.91;5028184;28;19925;-80
2023/12/18 14:09:00;;;;;;;;;;;;;;;5.61;63.40;100929.84;5031605;28;19913;-81
2023/12/18 14:11:26;;;;;;;;;;;;;;;5.57;63.88;100923.97;5014717;28;20117;-79
2023/12/18 14:13:52;;;;;;;;;;;;;;;5.53;63.63;100932.19;5029299;28;19971;-81
2023/12/18 14:16:17;;;;;;;;;;;;;;;5.47;63.96;100928.22;5032186;28;19917;-79
2023/12/18 14:18:43;;;;;;;;;;;;;;;5.42;64.56;100933.78;5031138;28;20310;-79
2023/12/18 14:21:08;;;;;;;;;;;;;;;5.39;64.51;100938.41;5019551;28;19921;-79
2023/12/18 14:23:33;;;;;;;;;;;;;;;5.35;64.40;100934.34;5034165;28;20372;-78
2023/12/18 14:25:59;;;;;;;;;;;;;;;5.32;65.03;100931.94;5032205;28;20453;-79
2023/12/18 14:28:24;;;;;;;;;;;;;;;5.31;64.75;100928.50;5030272;28;20357;-78
2023/12/18 14:30:50;;;;;;;;;;;;;;;5.29;65.17;100929.56;5031382;28;19914;-78
2023/12/18 14:33:15;;;;;;;;;;;;;;;5.28;64.85;100925.25;5030597;28;19975;-79
2023/12/18 14:35:41;;;;;;;;;;;;;;;5.23;65.39;100928.22;5033720;28;19917;-80
2023/12/18 14:38:07;;;;;;;;;;;;;;;5.19;65.04;100929.34;5014077;28;19929;-79
2023/12/18 14:40:35;;;;;;;;;;;;;;;5.16;66.10;100926.09;5029907;28;20313;-79
2023/12/18 14:43:00;;;;;;;;;;;;;;;5.13;65.43;100928.94;5031955;28;20387;-78
2023/12/18 14:45:25;;;;;;;;;;;;;;;5.04;66.00;100928.66;5032578;28;19923;-78
2023/12/18 14:47:51;;;;;;;;;;;;;;;5.01;65.86;100918.41;5029507;28;20421;-78
2023/12/18 14:50:16;;;;;;;;;;;;;;;4.98;66.49;100917.78;5032224;28;19991;-78
2023/12/18 14:52:41;;;;;;;;;;;;;;;4.94;66.60;100913.72;5032148;28;19968;-78
2023/12/18 14:55:07;;;;;;;;;;;;;;;4.92;67.16;100924.28;5018803;28;20295;-77
2023/12/18 14:57:33;;;;;;;;;;;;;;;4.88;66.73;100935.06;5014276;28;19921;-78
2023/12/18 14:59:58;;;;;;;;;;;;;;;4.85;66.82;100916.97;5043026;28;19920;-79
2023/12/18 15:02:23;;;;;;;;;;;;;;;4.80;66.80;100914.69;5028325;28;20082;-78
2023/12/18 15:04:48;;;;;;;;;;;;;;;4.80;66.79;100919.91;5031786;28;19924;-78
2023/12/18 15:07:14;;;;;;;;;;;;;;;4.81;66.84;100916.34;5019688;28;19939;-78
2023/12/18 15:09:39;;;;;;;;;;;;;;;4.84;66.87;100915.31;5030800;28;19917;-77
2023/12/18 15:12:05;;;;;;;;;;;;;;;4.85;67.06;100916.97;5030807;28;19924;-78
2023/12/18 15:14:30;;;;;;;;;;;;;;;4.84;67.35;100916.13;5038697;28;19924;-78
2023/12/18 15:17:03;;;;;;;;;;;;;;;4.80;67.53;100914.69;5052373;28;19913;-79
2023/12/18 15:19:29;;;;;;;;;;;;;;;4.78;67.43;100906.09;5038214;28;20418;-78
2023/12/18 15:21:54;;;;;;;;;;;;;;;4.75;67.58;100909.78;5021966;28;20028;-78
2023/12/18 15:24:19;;;;;;;;;;;;;;;4.72;67.62;100906.53;5034141;28;19970;-78
2023/12/18 15:26:45;;;;;;;;;;;;;;;4.69;67.69;100911.97;5033941;28;19975;-78
2023/12/18 15:29:10;;;;;;;;;;;;;;;4.64;67.40;100908.84;5044524;28;19944;-78
2023/12/18 15:31:35;;;;;;;;;;;;;;;4.62;67.27;100903.72;5034995;28;19952;-78
2023/12/18 15:34:01;;;;;;;;;;;;;;;4.58;67.46;100901.44;5028232;28;20012;-79
2023/12/18 15:36:27;;;;;;;;;;;;;;;4.55;67.57;100912.09;5032410;28;19913;-79
2023/12/18 15:38:52;;;;;;;;;;;;;;;4.51;67.28;100906.25;5011493;28;19932;-79
2023/12/18 15:41:18;;;;;;;;;;;;;;;4.46;67.62;100901.34;5030464;28;19916;-79
2023/12/18 15:43:43;;;;;;;;;;;;;;;4.39;67.99;100905.28;5031146;28;20322;-78
2023/12/18 15:46:08;;;;;;;;;;;;;;;4.36;67.85;100912.50;5031835;28;20370;-78
2023/12/18 15:48:34;;;;;;;;;;;;;;;4.33;67.67;100916.16;5030945;28;19979;-78
2023/12/18 15:50:59;;;;;;;;;;;;;;;4.32;68.03;100918.88;5030948;28;19971;-80
2023/12/18 15:53:27;;;;;;;;;;;;;;;4.30;68.24;100913.75;5031816;28;19917;-78
2023/12/18 15:55:52;;;;;;;;;;;;;;;4.26;68.48;100920.13;5019133;28;19924;-79
2023/12/18 15:58:18;;;;;;;;;;;;;;;4.24;68.36;100914.16;5032201;28;20306;-79
2023/12/18 16:00:43;;;;;;;;;;;;;;;4.22;68.29;100910.00;5031836;28;19913;-78
2023/12/18 16:03:08;;;;;;;;;;;;;;;4.22;67.99;100897.75;5031938;28;19921;-78
2023/12/18 16:05:34;;;;;;;;;;;;;;;4.20;68.13;100910.09;5029884;28;20383;-78
2023/12/18 16:08:00;;;;;;;;;;;;;;;4.18;68.11;100906.75;5014082;28;19913;-78
2023/12/18 16:10:25;;;;;;;;;;;;;;;4.16;67.93;100903.41;5031804;28;19914;-78
2023/12/18 16:12:51;;;;;;;;;;;;;;;4.15;68.17;100902.56;5030015;28;19917;-78
2023/12/18 16:15:16;;;;;;;;;;;;;;;4.15;68.17;100901.72;5031882;28;19920;-78
2023/12/18 16:17:41;;;;;;;;;;;;;;;4.14;68.32;100910.50;5014256;28;19947;-78
2023/12/18 16:20:08;;;;;;;;;;;;;;;4.13;68.21;100908.84;5015036;28;19920;-78
2023/12/18 16:22:33;;;;;;;;;;;;;;;4.11;67.99;100921.16;5017288;28;19921;-78
2023/12/18 16:24:58;;;;;;;;;;;;;;;4.05;67.96;100930.25;5035163;28;20016;-78
2023/12/18 16:27:24;;;;;;;;;;;;;;;3.99;68.17;100919.38;5035537;28;19995;-78
2023/12/18 16:29:53;;;;;;;;;;;;;;;3.97;68.31;100916.88;5033268;28;19916;-78
2023/12/18 16:32:18;;;;;;;;;;;;;;;3.98;67.89;100917.69;5034178;28;19917;-78
2023/12/18 16:34:44;;;;;;;;;;;;;;;3.93;68.04;100917.16;5035395;28;19920;-77
2023/12/18 16:37:10;;;;;;;;;;;;;;;3.91;67.98;100922.50;5010260;28;20387;-77
2023/12/18 16:39:40;;;;;;;;;;;;;;;3.89;68.14;100929.59;4994621;28;19914;-78
2023/12/18 16:42:05;;;;;;;;;;;;;;;3.86;68.19;100918.50;4993873;28;20379;-78
2023/12/18 16:44:31;;;;;;;;;;;;;;;3.81;68.15;100926.66;4995381;28;19937;-78
2023/12/18 16:46:56;;;;;;;;;;;;;;;3.81;68.14;100914.44;4995534;28;19914;-78
2023/12/18 16:49:22;;;;;;;;;;;;;;;3.80;68.17;100925.81;4995692;28;19918;-77
2023/12/18 16:51:47;;;;;;;;;;;;;;;3.79;68.36;100918.94;4995879;28;20399;-77
2023/12/18 16:54:13;;;;;;;;;;;;;;;3.79;68.62;100918.94;4996009;28;19921;-77
2023/12/18 16:56:38;;;;;;;;;;;;;;;3.78;68.70;100911.19;4995888;28;20311;-77
2023/12/18 16:59:03;;;;;;;;;;;;;;;3.74;68.61;100921.00;4996965;28;19913;-77
2023/12/18 17:01:29;;;;;;;;;;;;;;;3.75;68.62;100921.84;4997437;28;19913;-77
2023/12/18 17:03:55;;;;;;;;;;;;;;;3.73;68.59;100923.72;4997385;28;19918;-77
2023/12/18 17:06:20;;;;;;;;;;;;;;;3.74;68.84;100926.22;4997124;28;19924;-78
2023/12/18 17:08:45;;;;;;;;;;;;;;;3.72;68.96;100925.50;4997394;28;19914;-77
2023/12/18 17:11:11;;;;;;;;;;;;;;;3.68;68.76;100920.53;4997221;28;20311;-77
2023/12/18 17:13:36;;;;;;;;;;;;;;;3.68;68.70;100920.53;4999159;28;19910;-77
2023/12/18 17:16:01;;;;;;;;;;;;;;;3.64;68.76;100924.28;5001336;28;19921;-77
2023/12/18 17:18:26;;;;;;;;;;;;;;;3.63;68.71;100913.00;4999078;28;19921;-77
2023/12/18 17:20:52;;;;;;;;;;;;;;;3.64;68.68;100913.84;4995356;28;19913;-77
2023/12/18 17:23:17;;;;;;;;;;;;;;;3.66;69.11;100911.97;4995201;28;19998;-77
2023/12/18 17:25:43;;;;;;;;;;;;;;;3.63;68.79;100913.00;4993753;28;19918;-77
2023/12/18 17:28:08;;;;;;;;;;;;;;;3.61;69.05;100914.88;4994920;28;19914;-77
2023/12/18 17:30:33;;;;;;;;;;;;;;;3.61;69.18;100914.88;4994821;28;20057;-77
2023/12/18 17:32:59;;;;;;;;;;;;;;;3.60;69.18;100918.44;4994714;28;19929;-77
2023/12/18 17:35:24;;;;;;;;;;;;;;;3.57;69.29;100918.63;4994780;28;20387;-77
2023/12/18 17:37:49;;;;;;;;;;;;;;;3.57;69.03;100920.41;5012669;28;20431;-77
2023/12/18 17:40:14;;;;;;;;;;;;;;;3.57;68.89;100925.63;5016404;28;19917;-77
2023/12/18 17:42:40;;;;;;;;;;;;;;;3.57;69.22;100925.63;5034151;28;20390;-76
2023/12/18 17:45:06;;;;;;;;;;;;;;;3.54;69.11;100924.03;5034023;28;19921;-77
2023/12/18 17:47:32;;;;;;;;;;;;;;;3.52;69.10;100925.91;5034024;28;19921;-77
2023/12/18 17:49:58;;;;;;;;;;;;;;;3.48;69.16;100934.88;5033956;28;19967;-76
2023/12/18 17:52:24;;;;;;;;;;;;;;;3.46;69.38;100931.53;5034124;28;19913;-77
2023/12/18 17:54:49;;;;;;;;;;;;;;;3.46;69.25;100926.31;5034006;28;20365;-77
2023/12/18 17:57:14;;;;;;;;;;;;;;;3.45;69.34;100927.25;5034089;28;19910;-76
2023/12/18 17:59:40;;;;;;;;;;;;;;;3.45;69.12;100929.88;5033815;28;19949;-76
2023/12/18 18:02:05;;;;;;;;;;;;;;;3.46;68.93;100921.94;5015979;28;19917;-77
2023/12/18 18:04:30;;;;;;;;;;;;;;;3.45;69.46;100927.25;5033578;28;20019;-77
2023/12/18 18:06:55;;;;;;;;;;;;;;;3.42;69.32;100923.06;5033689;28;19914;-76
2023/12/18 18:09:21;;;;;;;;;;;;;;;3.37;69.36;100922.53;5033634;28;19917;-77
2023/12/18 18:11:46;;;;;;;;;;;;;;;3.37;69.76;100929.50;5033337;28;19924;-77
2023/12/18 18:14:11;;;;;;;;;;;;;;;3.33;69.50;100936.69;5033280;28;20287;-76
2023/12/18 18:16:37;;;;;;;;;;;;;;;3.33;69.51;100928.88;5033567;28;20007;-76
2023/12/18 18:19:05;;;;;;;;;;;;;;;3.28;69.58;100917.88;5033365;28;19952;-77
2023/12/18 18:21:30;;;;;;;;;;;;;;;3.27;69.56;100918.81;5033579;28;19923;-77
2023/12/18 18:23:56;;;;;;;;;;;;;;;3.29;70.00;100916.94;5033771;28;19913;-77
2023/12/18 18:26:21;;;;;;;;;;;;;;;3.28;69.78;100917.88;5033307;28;20306;-77
2023/12/18 18:28:46;;;;;;;;;;;;;;;3.28;69.34;100904.84;5034862;28;19985;-77
2023/12/18 18:31:11;;;;;;;;;;;;;;;3.30;69.62;100902.97;5034824;28;19917;-77
2023/12/18 18:33:38;;;;;;;;;;;;;;;3.30;69.24;100913.41;5034679;28;20004;-77
2023/12/18 18:36:05;;;;;;;;;;;;;;;3.32;69.54;100913.31;5034603;28;19913;-78
2023/12/18 18:38:30;;;;;;;;;;;;;;;3.29;69.57;100909.13;5034559;28;19921;-77
2023/12/18 18:40:55;;;;;;;;;;;;;;;3.28;69.57;100904.84;5034503;28;19913;-77
2023/12/18 18:43:21;;;;;;;;;;;;;;;3.26;69.59;100908.47;5032499;28;19920;-77
2023/12/18 18:45:46;;;;;;;;;;;;;;;3.23;69.61;100908.69;5032958;28;19921;-77
2023/12/18 18:48:11;;;;;;;;;;;;;;;3.18;69.55;100895.91;5032922;28;20318;-77
2023/12/18 18:50:37;;;;;;;;;;;;;;;3.15;69.48;100899.56;5032917;28;20332;-77
2023/12/18 18:53:05;;;;;;;;;;;;;;;3.11;70.05;100897.25;5014843;28;20378;-77
2023/12/18 18:55:31;;;;;;;;;;;;;;;3.12;70.11;100902.38;5032499;28;19936;-77
2023/12/18 18:57:56;;;;;;;;;;;;;;;3.11;69.54;100894.63;5032691;28;19913;-77
2023/12/18 19:00:21;;;;;;;;;;;;;;;3.10;69.46;100899.03;5015025;28;19956;-77
2023/12/18 19:02:46;;;;;;;;;;;;;;;3.11;69.32;100911.13;5032701;28;19913;-77
2023/12/18 19:05:12;;;;;;;;;;;;;;;3.07;69.60;100904.44;5032479;28;20386;-77
2023/12/18 19:07:37;;;;;;;;;;;;;;;2.98;69.79;100909.38;5015219;28;19921;-77
2023/12/18 19:10:03;;;;;;;;;;;;;;;2.93;69.72;100912.25;5032426;28;19953;-76
2023/12/18 19:12:31;;;;;;;;;;;;;;;2.92;70.32;100909.75;5015092;28;19913;-77
2023/12/18 19:14:56;;;;;;;;;;;;;;;2.95;70.24;100907.78;5032361;28;20001;-77
2023/12/18 19:17:21;;;;;;;;;;;;;;;2.99;69.94;100901.47;5032492;28;19956;-77
2023/12/18 19:19:46;;;;;;;;;;;;;;;3.03;69.76;100897.72;5032617;28;19916;-77
2023/12/18 19:22:12;;;;;;;;;;;;;;;3.04;70.06;100894.19;5032650;28;20363;-77
2023/12/18 19:24:37;;;;;;;;;;;;;;;3.07;70.05;100908.81;5032446;28;19917;-76
2023/12/18 19:27:02;;;;;;;;;;;;;;;3.02;69.87;100905.66;5032184;28;20394;-77
2023/12/18 19:29:28;;;;;;;;;;;;;;;3.02;69.79;100906.50;5014519;28;19940;-77
2023/12/18 19:31:55;;;;;;;;;;;;;;;3.06;69.85;100909.75;5032443;28;20353;-77
2023/12/18 19:34:20;;;;;;;;;;;;;;;3.05;69.73;100897.63;5014528;28;20309;-77
2023/12/18 19:36:46;;;;;;;;;;;;;;;3.02;69.87;100901.28;5014394;28;19913;-77
2023/12/18 19:39:12;;;;;;;;;;;;;;;3.01;70.28;100890.94;5032359;28;19917;-76
2023/12/18 19:41:37;;;;;;;;;;;;;;;3.01;70.01;100898.75;5032081;28;19913;-76
2023/12/18 19:44:03;;;;;;;;;;;;;;;2.97;69.94;100886.81;5032061;28;19920;-77
2023/12/18 19:46:28;;;;;;;;;;;;;;;2.97;69.84;100900.69;5032041;28;20302;-77
2023/12/18 19:48:54;;;;;;;;;;;;;;;2.97;69.85;100898.09;5032248;28;19913;-77
2023/12/18 19:51:19;;;;;;;;;;;;;;;2.95;69.90;100906.94;5032003;28;19913;-77
2023/12/18 19:53:44;;;;;;;;;;;;;;;2.93;69.94;100898.38;5031886;28;19913;-76
2023/12/18 19:56:10;;;;;;;;;;;;;;;2.92;70.53;100896.69;5013309;28;19920;-76
2023/12/18 19:58:35;;;;;;;;;;;;;;;2.93;70.25;100898.38;5031857;28;20187;-76
2023/12/18 20:01:00;;;;;;;;;;;;;;;2.93;69.96;100894.00;5014485;28;19921;-76
2023/12/18 20:03:26;;;;;;;;;;;;;;;2.90;69.92;100886.38;5031726;28;19913;-77
2023/12/18 20:05:51;;;;;;;;;;;;;;;2.90;70.22;100886.38;5014062;28;20386;-77
2023/12/18 20:08:16;;;;;;;;;;;;;;;2.92;69.84;100875.84;5031716;28;19975;-76
2023/12/18 20:10:41;;;;;;;;;;;;;;;2.86;69.87;100879.66;5014369;28;19917;-76
2023/12/18 20:13:07;;;;;;;;;;;;;;;2.84;70.30;100873.72;5032608;28;20370;-77